CheckWX is a tool to help pilots better visualize weather data.  It is not intended as a substitute for an official pre-flight weather briefing.

04:49:04 UTC

KSRB METAR
Upper Cumberland Regional Airport
Sparta, Tennessee, USA
Current

34 mins ago

KSRB 270415Z AUTO 00000KT 10SM SCT049 SCT055 22/21 A3021 RMK A01
Observed
Jun-27 @ 04:15 UTC
Visibility
10 SM
Flight Rules
VFR
Cloud Levels
  • Scattered at 4,900' AGL
  • Scattered at 5,500' AGL
Temperature
22°C / 72°F
Dewpoint
21°C / 70°F
Humidity
94%
Altimeter
30.21" Hg
Pressure
1023.02 hPa
Previous

54 mins ago

KSRB 270355Z AUTO 29005KT 10SM BKN049 OVC060 22/21 A3022 RMK A01
Observed
Jun-27 @ 03:55 UTC
Wind
  • 290° at 5 KTS
Visibility
10 SM
Flight Rules
VFR
Cloud Levels
  • Broken at 4,900' AGL
  • Overcast at 6,000' AGL
Temperature
22°C / 72°F
Dewpoint
21°C / 70°F
Humidity
94%
Altimeter
30.22" Hg
Pressure
1023.42 hPa
Previous

1 hour ago

KSRB 270335Z AUTO 00000KT 10SM SCT060 22/21 A3021 RMK A01
Observed
Jun-27 @ 03:35 UTC
Visibility
10 SM
Flight Rules
VFR
Cloud Levels
  • Scattered at 6,000' AGL
Temperature
22°C / 72°F
Dewpoint
21°C / 70°F
Humidity
94%
Altimeter
30.21" Hg
Pressure
1023.02 hPa